createdAt,value
2019-02-05T00:00:51.681Z,16.57
2019-02-05T00:03:22.520Z,15.80
2019-02-05T00:05:52.148Z,15.05
2019-02-05T00:08:21.675Z,15.80
2019-02-05T00:10:50.631Z,14.23
2019-02-05T00:13:19.558Z,14.45
2019-02-05T00:15:48.540Z,14.45
2019-02-05T00:18:17.352Z,13.88
2019-02-05T00:20:47.082Z,14.25
2019-02-05T00:23:16.296Z,13.60
2019-02-05T00:25:45.301Z,13.50
2019-02-05T00:28:14.290Z,13.90
2019-02-05T00:30:43.557Z,14.47
2019-02-05T00:33:12.572Z,14.43
2019-02-05T00:35:41.573Z,15.03
2019-02-05T00:38:10.516Z,14.38
2019-02-05T00:40:39.502Z,14.80
2019-02-05T00:43:08.579Z,14.45
2019-02-05T00:45:37.500Z,14.68
2019-02-05T00:48:06.801Z,15.50
2019-02-05T00:50:35.768Z,14.75
2019-02-05T00:53:05.456Z,14.58
2019-02-05T00:55:34.348Z,14.05
2019-02-05T00:58:03.676Z,14.60
2019-02-05T01:00:34.020Z,14.68
2019-02-05T01:03:03.016Z,14.45
2019-02-05T01:05:31.921Z,14.70
2019-02-05T01:08:01.216Z,14.98
2019-02-05T01:10:30.196Z,15.20
2019-02-05T01:12:59.696Z,14.57
2019-02-05T01:15:28.609Z,14.75
2019-02-05T01:17:57.816Z,15.58
2019-02-05T01:20:26.777Z,15.13
2019-02-05T01:22:55.676Z,15.00
2019-02-05T01:25:24.692Z,15.63
2019-02-05T01:27:53.664Z,14.78
2019-02-05T01:30:26.840Z,14.47
2019-02-05T01:32:56.012Z,15.63
2019-02-05T01:35:25.012Z,14.50
2019-02-05T01:37:54.008Z,14.28
2019-02-05T01:40:24.690Z,14.78
2019-02-05T01:42:53.879Z,14.25
2019-02-05T01:45:23.792Z,14.87
2019-02-05T01:47:53.032Z,14.80
2019-02-05T01:50:24.087Z,14.93
2019-02-05T01:52:52.988Z,15.03
2019-02-05T01:55:22.293Z,14.58
2019-02-05T01:57:51.489Z,15.48
2019-02-05T02:00:22.759Z,14.70
2019-02-05T02:02:51.940Z,14.30
2019-02-05T02:05:20.903Z,15.40
2019-02-05T02:07:49.888Z,15.55
2019-02-05T02:10:21.485Z,13.75
2019-02-05T02:12:50.636Z,13.43
2019-02-05T02:15:19.968Z,14.98
2019-02-05T02:17:49.044Z,14.60
2019-02-05T02:20:18.892Z,15.25
2019-02-05T02:23:07.013Z,15.15
2019-02-05T02:25:36.002Z,15.23
2019-02-05T02:28:05.512Z,14.55
2019-02-05T02:30:37.158Z,14.80
2019-02-05T02:33:06.556Z,14.40
2019-02-05T02:35:36.011Z,13.75
2019-02-05T02:38:05.803Z,14.93
2019-02-05T02:40:34.789Z,15.18
2019-02-05T02:43:03.696Z,14.98
2019-02-05T02:45:32.661Z,13.95
2019-02-05T02:48:01.666Z,15.70
2019-02-05T02:50:31.130Z,14.25
2019-02-05T02:53:19.074Z,15.15
2019-02-05T02:55:47.882Z,15.40
2019-02-05T02:58:16.881Z,17.07
2019-02-05T03:00:45.767Z,15.05
2019-02-05T03:03:14.815Z,13.53
2019-02-05T03:05:44.365Z,16.07
2019-02-05T03:08:13.332Z,14.95
2019-02-05T03:10:42.268Z,15.10
2019-02-05T03:13:11.378Z,13.40
2019-02-05T03:15:40.398Z,14.55
2019-02-05T03:18:09.192Z,14.35
2019-02-05T03:20:38.390Z,16.02
2019-02-05T03:23:07.277Z,15.83
2019-02-05T03:25:36.292Z,14.23
2019-02-05T03:28:05.248Z,14.30
2019-02-05T03:30:34.458Z,14.38
2019-02-05T03:33:03.370Z,15.30
2019-02-05T03:35:32.353Z,15.13
2019-02-05T03:38:01.716Z,16.37
2019-02-05T03:41:00.353Z,15.32
2019-02-05T03:43:29.257Z,14.65
2019-02-05T03:45:59.852Z,15.68
2019-02-05T03:48:30.116Z,16.87
2019-02-05T03:51:36.394Z,15.70
2019-02-05T03:54:32.357Z,15.10
2019-02-05T03:57:30.705Z,14.95
2019-02-05T04:00:15.708Z,15.18
2019-02-05T04:02:54.062Z,15.45
2019-02-05T04:06:19.320Z,15.03
2019-02-05T04:09:25.656Z,15.10
2019-02-05T04:12:17.941Z,14.75
2019-02-05T04:15:08.223Z,14.58
2019-02-05T04:18:22.101Z,15.78
2019-02-05T04:21:10.863Z,14.90
2019-02-05T04:24:06.976Z,13.90
2019-02-05T04:27:12.041Z,14.95
2019-02-05T04:30:19.314Z,13.75
2019-02-05T04:33:38.509Z,13.80
2019-02-05T04:36:36.536Z,14.93
2019-02-05T04:39:41.648Z,14.98
2019-02-05T04:42:36.878Z,14.80
2019-02-05T04:45:43.213Z,14.98
2019-02-05T04:48:56.732Z,14.98
2019-02-05T04:52:31.041Z,15.75
2019-02-05T04:55:12.925Z,17.30
2019-02-05T04:58:10.484Z,17.05
2019-02-05T05:00:57.707Z,17.12
2019-02-05T05:04:16.717Z,16.02
2019-02-05T05:07:39.952Z,17.05
2019-02-05T05:10:09.301Z,16.50
2019-02-05T05:12:38.292Z,16.42
2019-02-05T05:15:09.625Z,17.30
2019-02-05T05:17:38.605Z,17.27
2019-02-05T05:20:10.067Z,14.45
2019-02-05T05:22:39.492Z,14.40
2019-02-05T05:25:10.353Z,14.93
2019-02-05T05:27:39.652Z,16.80
2019-02-05T05:30:15.677Z,17.75
2019-02-05T05:32:44.558Z,15.28
2019-02-05T05:35:14.596Z,16.00
2019-02-05T05:37:43.558Z,16.25
2019-02-05T05:40:13.224Z,16.65
2019-02-05T05:42:42.221Z,16.48
2019-02-05T05:45:13.626Z,15.38
2019-02-05T05:47:42.558Z,17.12
2019-02-05T05:50:14.165Z,17.23
2019-02-05T05:52:43.200Z,17.15
2019-02-05T05:55:13.032Z,17.90
2019-02-05T05:57:42.341Z,17.67
2019-02-05T06:00:14.981Z,17.73
2019-02-05T06:02:44.016Z,17.17
2019-02-05T06:05:14.937Z,19.55
2019-02-05T06:07:44.136Z,19.40
2019-02-05T06:10:13.941Z,17.70
2019-02-05T06:12:42.966Z,18.42
2019-02-05T06:15:12.276Z,17.45
2019-02-05T06:17:41.128Z,18.15
2019-02-05T06:20:12.764Z,18.92
2019-02-05T06:22:41.622Z,17.42
2019-02-05T06:25:11.193Z,19.17
2019-02-05T06:27:40.524Z,20.02
2019-02-05T06:30:10.965Z,19.23
2019-02-05T06:32:39.836Z,19.82
2019-02-05T06:35:08.768Z,20.08
2019-02-05T06:37:37.731Z,20.32
2019-02-05T06:40:07.796Z,16.00
2019-02-05T06:42:36.748Z,19.07
2019-02-05T06:45:07.368Z,20.20
2019-02-05T06:47:36.280Z,19.85
2019-02-05T06:50:06.496Z,19.40
2019-02-05T06:52:35.388Z,20.15
2019-02-05T06:55:05.028Z,20.12
2019-02-05T06:57:34.180Z,19.77
2019-02-05T07:00:03.036Z,22.58
2019-02-05T07:02:31.965Z,21.10
2019-02-05T07:05:00.865Z,21.20
2019-02-05T07:07:29.708Z,21.05
2019-02-05T07:09:58.792Z,19.32
2019-02-05T07:12:28.357Z,22.27
2019-02-05T07:14:57.266Z,21.82
2019-02-05T07:17:26.168Z,22.65
2019-02-05T07:19:54.968Z,21.35
2019-02-05T07:22:24.260Z,22.67
2019-02-05T07:24:53.155Z,21.75
2019-02-05T07:27:22.157Z,21.57
2019-02-05T07:29:51.343Z,21.57
2019-02-05T07:32:20.248Z,24.07
2019-02-05T07:34:49.048Z,22.40
2019-02-05T07:37:18.148Z,26.00
2019-02-05T07:39:47.328Z,23.32
2019-02-05T07:42:16.263Z,22.82
2019-02-05T07:44:45.416Z,21.60
2019-02-05T07:47:14.413Z,21.73
2019-02-05T07:49:43.396Z,23.00
2019-02-05T07:52:12.909Z,22.60
2019-02-05T07:54:41.716Z,21.82
2019-02-05T07:57:10.744Z,22.20
2019-02-05T07:59:39.556Z,23.50
2019-02-05T08:02:08.434Z,23.32
2019-02-05T08:04:37.436Z,23.30
2019-02-05T08:07:07.636Z,22.32
2019-02-05T08:09:36.740Z,23.75
2019-02-05T08:12:06.016Z,24.90
2019-02-05T08:14:34.898Z,23.42
2019-02-05T08:17:03.981Z,22.90
2019-02-05T08:19:33.054Z,23.10
2019-02-05T08:22:02.151Z,23.40
2019-02-05T08:24:31.725Z,22.50
2019-02-05T08:27:00.537Z,21.77
2019-02-05T08:29:29.764Z,22.20
2019-02-05T08:31:59.126Z,22.40
2019-02-05T08:34:28.346Z,21.77
2019-02-05T08:36:57.332Z,22.00
2019-02-05T08:39:26.622Z,21.93
2019-02-05T08:41:55.904Z,21.60
2019-02-05T08:44:24.788Z,23.27
2019-02-05T08:46:53.804Z,22.40
2019-02-05T08:49:22.824Z,22.32
2019-02-05T08:51:51.997Z,21.37
2019-02-05T08:54:21.164Z,21.85
2019-02-05T08:56:50.120Z,22.40
2019-02-05T08:59:19.373Z,22.25
2019-02-05T09:01:48.404Z,22.37
2019-02-05T09:04:17.316Z,22.95
2019-02-05T09:06:46.236Z,22.65
2019-02-05T09:09:15.356Z,21.95
2019-02-05T09:11:44.377Z,20.25
2019-02-05T09:14:13.308Z,19.98
2019-02-05T09:16:42.496Z,21.85
2019-02-05T09:19:11.462Z,20.97
2019-02-05T09:21:40.412Z,19.07
2019-02-05T09:24:09.598Z,21.25
2019-02-05T09:26:38.565Z,20.02
2019-02-05T09:29:07.497Z,20.80
2019-02-05T09:31:36.400Z,20.37
2019-02-05T09:34:05.768Z,19.87
2019-02-05T09:36:34.901Z,19.40
2019-02-05T09:39:06.613Z,19.00
2019-02-05T09:41:36.026Z,19.52
2019-02-05T09:44:05.807Z,20.95
2019-02-05T09:46:34.834Z,20.37
2019-02-05T09:49:04.353Z,21.17
2019-02-05T09:51:33.344Z,22.93
2019-02-05T09:54:02.522Z,22.32
2019-02-05T09:56:31.344Z,21.55
2019-02-05T09:59:00.368Z,21.60
2019-02-05T10:01:29.703Z,22.20
2019-02-05T10:03:58.588Z,21.75
2019-02-05T10:06:28.073Z,20.12
2019-02-05T10:08:57.199Z,22.27
2019-02-05T10:11:26.688Z,21.33
2019-02-05T10:13:55.624Z,21.82
2019-02-05T10:16:24.586Z,22.15
2019-02-05T10:18:53.592Z,22.07
2019-02-05T10:21:22.796Z,19.65
2019-02-05T10:23:52.172Z,19.75
2019-02-05T10:26:21.116Z,21.50
2019-02-05T10:28:50.043Z,22.70
2019-02-05T10:31:19.168Z,20.92
2019-02-05T10:33:54.840Z,21.55
2019-02-05T10:36:18.774Z,22.10
2019-02-05T10:38:48.336Z,23.20
2019-02-05T10:41:17.253Z,21.45
2019-02-05T10:43:46.220Z,22.10
2019-02-05T10:46:15.192Z,22.37
2019-02-05T10:48:44.082Z,23.18
2019-02-05T10:51:12.980Z,21.75
2019-02-05T10:53:41.865Z,21.90
2019-02-05T10:56:11.350Z,22.02
2019-02-05T10:58:40.438Z,24.60
2019-02-05T11:01:09.415Z,24.52
2019-02-05T11:03:38.484Z,24.20
2019-02-05T11:06:07.406Z,23.12
2019-02-05T11:08:36.473Z,22.40
2019-02-05T11:11:05.515Z,22.40
2019-02-05T11:13:35.209Z,23.30
2019-02-05T11:16:04.605Z,21.43
2019-02-05T11:18:33.502Z,21.90
2019-02-05T11:21:04.363Z,21.80
2019-02-05T11:23:33.075Z,22.53
2019-02-05T11:26:01.925Z,20.80
2019-02-05T11:28:31.031Z,20.57
2019-02-05T11:31:00.016Z,21.50
2019-02-05T11:33:29.021Z,20.90
2019-02-05T11:35:57.948Z,20.87
2019-02-05T11:38:26.745Z,21.00
2019-02-05T11:40:55.809Z,20.13
2019-02-05T11:43:24.680Z,20.90
2019-02-05T11:45:54.267Z,18.77
2019-02-05T11:48:23.656Z,19.63
2019-02-05T11:50:52.660Z,19.37
2019-02-05T11:53:21.996Z,17.80
2019-02-05T11:55:50.957Z,18.93
2019-02-05T11:58:19.977Z,19.37
2019-02-05T12:00:57.134Z,17.80
2019-02-05T12:03:26.484Z,18.67
2019-02-05T12:05:56.352Z,17.73
2019-02-05T12:08:25.237Z,16.83
2019-02-05T12:10:54.286Z,17.57
2019-02-05T12:13:23.252Z,17.70
2019-02-05T12:15:52.089Z,16.80
2019-02-05T12:18:22.328Z,15.43
2019-02-05T12:20:51.228Z,15.83
2019-02-05T12:23:20.232Z,16.27
2019-02-05T12:25:49.149Z,14.50
2019-02-05T12:28:18.204Z,13.27
2019-02-05T12:30:48.116Z,14.93
2019-02-05T12:33:16.898Z,15.93
2019-02-05T12:35:46.364Z,14.70
2019-02-05T12:38:15.300Z,14.70
2019-02-05T12:40:44.548Z,14.90
2019-02-05T12:43:13.564Z,13.60
2019-02-05T12:45:42.845Z,13.00
2019-02-05T12:48:11.798Z,12.40
2019-02-05T12:50:40.869Z,11.83
2019-02-05T12:53:10.132Z,11.17
2019-02-05T12:55:39.401Z,12.10
2019-02-05T12:58:08.749Z,13.07
2019-02-05T13:00:43.533Z,12.03
2019-02-05T13:03:13.223Z,11.90
2019-02-05T13:05:43.628Z,12.80
2019-02-05T13:08:12.757Z,11.80
2019-02-05T13:10:44.088Z,11.00
2019-02-05T13:13:13.392Z,12.40
2019-02-05T13:15:42.388Z,12.53
2019-02-05T13:18:11.404Z,11.50
2019-02-05T13:20:40.789Z,12.30
2019-02-05T13:23:10.310Z,11.93
2019-02-05T13:25:40.500Z,12.23
2019-02-05T13:28:11.920Z,11.47
2019-02-05T13:30:41.180Z,11.70
2019-02-05T13:33:11.465Z,10.30
2019-02-05T13:35:40.831Z,11.30
2019-02-05T13:38:10.000Z,9.97
2019-02-05T13:40:39.108Z,10.97
2019-02-05T13:43:08.398Z,10.43
2019-02-05T13:45:39.037Z,10.87
2019-02-05T13:48:08.605Z,10.20
2019-02-05T13:50:37.787Z,9.70
2019-02-05T13:53:07.207Z,11.70
2019-02-05T13:55:38.841Z,11.90
2019-02-05T13:58:08.118Z,11.23
2019-02-05T14:00:48.048Z,10.90
2019-02-05T14:03:17.153Z,12.80
2019-02-05T14:05:46.760Z,10.90
2019-02-05T14:08:15.763Z,10.83
2019-02-05T14:10:45.086Z,10.80
2019-02-05T14:13:14.072Z,11.00
2019-02-05T14:15:44.016Z,10.33
2019-02-05T14:18:13.268Z,11.13
2019-02-05T14:20:42.372Z,11.13
2019-02-05T14:23:11.522Z,10.60
2019-02-05T14:25:40.588Z,10.73
2019-02-05T14:28:09.573Z,11.20
2019-02-05T14:30:44.220Z,10.33
2019-02-05T14:33:13.415Z,10.40
2019-02-05T14:35:42.541Z,11.33
2019-02-05T14:38:11.880Z,11.23
2019-02-05T14:41:01.290Z,11.67
2019-02-05T14:43:30.420Z,7.50
2019-02-05T14:45:59.324Z,11.60
2019-02-05T14:48:28.283Z,10.87
2019-02-05T14:50:57.300Z,10.77
2019-02-05T14:53:26.300Z,10.20
2019-02-05T14:55:55.193Z,10.33
2019-02-05T14:58:24.336Z,11.40
2019-02-05T15:00:53.301Z,11.67
2019-02-05T15:03:22.268Z,11.90
2019-02-05T15:05:51.052Z,10.40
2019-02-05T15:08:20.321Z,11.53
2019-02-05T15:10:49.391Z,12.27
2019-02-05T15:13:18.602Z,11.07
2019-02-05T15:15:47.845Z,10.87
2019-02-05T15:18:18.973Z,11.93
2019-02-05T15:20:49.289Z,13.10
2019-02-05T15:23:18.441Z,12.30
2019-02-05T15:25:47.412Z,12.77
2019-02-05T15:28:16.675Z,11.93
2019-02-05T15:30:46.067Z,10.60
2019-02-05T15:33:41.612Z,11.83
2019-02-05T15:36:32.026Z,11.47
2019-02-05T15:39:01.052Z,11.93
2019-02-05T15:41:29.928Z,10.77
2019-02-05T15:44:00.765Z,11.07
2019-02-05T15:46:29.524Z,10.50
2019-02-05T15:48:58.496Z,11.10
2019-02-05T15:51:27.698Z,12.20
2019-02-05T15:53:56.573Z,12.60
2019-02-05T15:56:25.561Z,11.80
2019-02-05T15:58:54.451Z,11.87
2019-02-05T16:01:23.443Z,13.13
2019-02-05T16:03:52.266Z,12.40
2019-02-05T16:06:21.409Z,12.10
2019-02-05T16:08:50.648Z,11.20
2019-02-05T16:11:19.452Z,10.90
2019-02-05T16:13:48.490Z,13.20
2019-02-05T16:16:17.488Z,12.30
2019-02-05T16:18:46.467Z,11.63
2019-02-05T16:21:15.368Z,11.17
2019-02-05T16:23:44.284Z,13.10
2019-02-05T16:26:13.128Z,12.63
2019-02-05T16:28:42.044Z,12.03
2019-02-05T16:31:10.940Z,13.00
2019-02-05T16:33:40.292Z,12.23
2019-02-05T16:36:09.650Z,12.63
2019-02-05T16:38:38.649Z,12.93
2019-02-05T16:41:07.626Z,13.03
2019-02-05T16:43:36.876Z,12.60
2019-02-05T16:46:06.216Z,11.57
2019-02-05T16:48:35.804Z,12.87
2019-02-05T16:51:05.429Z,12.43
2019-02-05T16:53:34.440Z,12.13
2019-02-05T16:56:03.716Z,12.30
2019-02-05T16:58:32.712Z,11.77
2019-02-05T17:01:01.722Z,12.60
2019-02-05T17:03:30.524Z,12.47
2019-02-05T17:05:59.452Z,16.50
2019-02-05T17:08:28.369Z,16.10
2019-02-05T17:10:57.389Z,14.53
2019-02-05T17:13:26.316Z,14.87
2019-02-05T17:15:55.172Z,15.10
2019-02-05T17:18:24.207Z,13.50
2019-02-05T17:20:53.255Z,15.93
2019-02-05T17:23:22.357Z,15.70
2019-02-05T17:25:51.256Z,14.90
2019-02-05T17:28:20.218Z,19.07
2019-02-05T17:30:49.096Z,22.10
2019-02-05T17:33:18.004Z,21.70
2019-02-05T17:35:48.853Z,14.97
2019-02-05T17:38:17.847Z,14.57
2019-02-05T17:40:47.148Z,13.53
2019-02-05T17:43:16.144Z,13.30
2019-02-05T17:45:45.304Z,15.57
2019-02-05T17:48:17.200Z,13.33
2019-02-05T17:50:46.270Z,16.10
2019-02-05T17:53:15.282Z,14.27
2019-02-05T17:55:44.408Z,15.83
2019-02-05T17:58:13.585Z,14.97
2019-02-05T18:01:10.708Z,15.20
2019-02-05T18:03:39.912Z,14.97
2019-02-05T18:06:09.213Z,15.57
2019-02-05T18:08:38.224Z,16.93
2019-02-05T18:11:07.347Z,15.40
2019-02-05T18:13:36.397Z,13.30
2019-02-05T18:16:13.605Z,14.23
2019-02-05T18:18:42.700Z,12.83
2019-02-05T18:21:11.623Z,14.20
2019-02-05T18:23:40.580Z,13.50
2019-02-05T18:26:09.926Z,13.07
2019-02-05T18:28:39.126Z,14.53
2019-02-05T18:31:08.084Z,13.13
2019-02-05T18:33:36.928Z,12.20
2019-02-05T18:36:06.453Z,13.40
2019-02-05T18:38:35.596Z,11.90
2019-02-05T18:41:04.689Z,12.53
2019-02-05T18:43:34.224Z,12.87
2019-02-05T18:46:03.172Z,11.80
2019-02-05T18:48:32.122Z,14.63
2019-02-05T18:51:00.940Z,32.13
2019-02-05T18:53:29.820Z,25.50
2019-02-05T18:55:58.892Z,29.90
2019-02-05T18:58:28.416Z,29.90
2019-02-05T19:00:57.364Z,23.57
2019-02-05T19:03:26.220Z,25.10
2019-02-05T19:05:57.055Z,29.10
2019-02-05T19:08:25.936Z,25.20
2019-02-05T19:10:54.934Z,29.13
2019-02-05T19:13:23.826Z,21.10
2019-02-05T19:15:52.623Z,31.07
2019-02-05T19:18:22.253Z,86.67
2019-02-05T19:20:51.655Z,29.07
2019-02-05T19:23:20.759Z,23.53
2019-02-05T19:26:14.720Z,24.60
2019-02-05T19:28:44.250Z,26.70
2019-02-05T19:31:23.392Z,24.87
2019-02-05T19:33:52.316Z,23.83
2019-02-05T19:36:21.562Z,22.60
2019-02-05T19:38:50.467Z,24.30
2019-02-05T19:41:19.485Z,22.42
2019-02-05T19:43:49.344Z,27.03
2019-02-05T19:46:36.239Z,25.23
2019-02-05T19:49:25.828Z,24.43
2019-02-05T19:51:54.932Z,24.33
2019-02-05T19:54:24.616Z,25.43
2019-02-05T19:56:53.977Z,24.27
2019-02-05T19:59:23.473Z,22.58
2019-02-05T20:01:52.459Z,21.73
2019-02-05T20:04:21.560Z,22.30
2019-02-05T20:06:50.529Z,20.20
2019-02-05T20:09:19.512Z,21.73
2019-02-05T20:11:48.808Z,18.87
2019-02-05T20:14:17.899Z,17.67
2019-02-05T20:16:46.857Z,19.10
2019-02-05T20:19:15.787Z,20.27
2019-02-05T20:21:45.252Z,29.23
2019-02-05T20:24:14.280Z,26.97
2019-02-05T20:26:43.660Z,23.17
2019-02-05T20:29:12.568Z,21.75
2019-02-05T20:31:41.580Z,19.48
2019-02-05T20:34:10.412Z,18.30
2019-02-05T20:36:39.799Z,18.73
2019-02-05T20:39:16.712Z,20.20
2019-02-05T20:41:45.677Z,22.80
2019-02-05T20:44:14.683Z,20.65
2019-02-05T20:46:43.652Z,20.30
2019-02-05T20:49:12.652Z,20.60
2019-02-05T20:51:41.809Z,18.45
2019-02-05T20:54:10.778Z,23.20
2019-02-05T20:56:39.660Z,24.10
2019-02-05T20:59:08.629Z,20.55
2019-02-05T21:01:37.540Z,19.32
2019-02-05T21:04:06.797Z,19.80
2019-02-05T21:06:35.796Z,16.73
2019-02-05T21:09:18.750Z,16.15
2019-02-05T21:11:47.810Z,18.42
2019-02-05T21:14:16.816Z,17.98
2019-02-05T21:16:46.020Z,16.70
2019-02-05T21:19:15.012Z,16.82
2019-02-05T21:21:44.020Z,20.05
2019-02-05T21:24:13.124Z,22.73
2019-02-05T21:26:42.053Z,22.35
2019-02-05T21:29:11.284Z,21.20
2019-02-05T21:31:40.516Z,22.07
2019-02-05T21:34:15.286Z,20.00
2019-02-05T21:36:40.047Z,19.40
2019-02-05T21:39:10.941Z,20.55
2019-02-05T21:41:39.966Z,18.90
2019-02-05T21:44:08.872Z,18.48
2019-02-05T21:46:37.792Z,20.57
2019-02-05T21:49:06.866Z,19.90
2019-02-05T21:51:40.893Z,20.62
2019-02-05T21:54:06.384Z,20.92
2019-02-05T21:56:35.360Z,19.73
2019-02-05T21:59:04.337Z,21.07
2019-02-05T22:01:33.345Z,18.60
2019-02-05T22:04:02.364Z,20.27
2019-02-05T22:06:31.500Z,16.40
2019-02-05T22:09:00.909Z,18.37
2019-02-05T22:11:30.400Z,19.82
2019-02-05T22:13:59.392Z,19.15
2019-02-05T22:16:28.320Z,18.92
2019-02-05T22:18:57.247Z,20.68
2019-02-05T22:21:26.608Z,18.92
2019-02-05T22:23:55.512Z,17.50
2019-02-05T22:26:24.473Z,17.87
2019-02-05T22:28:53.955Z,16.97
2019-02-05T22:31:22.948Z,17.95
2019-02-05T22:33:51.848Z,18.67
2019-02-05T22:36:20.745Z,17.17
2019-02-05T22:38:49.663Z,17.20
2019-02-05T22:41:19.116Z,16.15
2019-02-05T22:43:48.240Z,16.37
2019-02-05T22:46:17.172Z,17.65
2019-02-05T22:48:46.096Z,16.80
2019-02-05T22:51:15.090Z,16.30
2019-02-05T22:53:43.996Z,15.25
2019-02-05T22:56:12.912Z,16.23
2019-02-05T22:58:42.440Z,15.68
2019-02-05T23:01:31.312Z,16.15
2019-02-05T23:04:27.744Z,16.70
2019-02-05T23:07:12.368Z,15.85
2019-02-05T23:09:51.457Z,15.60
2019-02-05T23:12:37.249Z,16.50
2019-02-05T23:15:19.821Z,14.50
2019-02-05T23:17:48.828Z,16.27
2019-02-05T23:20:19.980Z,15.58
2019-02-05T23:22:49.129Z,16.95
2019-02-05T23:25:18.145Z,17.15
2019-02-05T23:27:47.044Z,18.87
2019-02-05T23:30:27.139Z,19.10
2019-02-05T23:32:56.086Z,18.50
2019-02-05T23:35:25.415Z,17.32
2019-02-05T23:37:54.382Z,18.25
2019-02-05T23:40:23.388Z,17.73
2019-02-05T23:42:52.288Z,15.98
2019-02-05T23:45:21.264Z,16.73
2019-02-05T23:47:50.152Z,18.50
2019-02-05T23:50:19.184Z,16.82
2019-02-05T23:52:48.174Z,15.00
2019-02-05T23:55:17.248Z,17.00
2019-02-05T23:57:46.209Z,14.80
